Time;durP1;ratioP1;P1;durP2;ratioP2;P2;SDS_P1;SDS_P2;PMS_P1;PMS_P2;Temp;Humidity;BMP_temperature;BMP_pressure;BME280_temperature;BME280_humidity;BME280_pressure;Samples;Min_cycle;Max_cycle;Signal;HPM_P1;HPM_P2
2023/05/30 21:02:45;;;;;;;10.40;2.55;;;21.70;48.80;;;;;;5107382;27;20423;-77
2023/05/30 21:05:10;;;;;;;11.90;2.92;;;21.90;48.80;;;;;;5108925;28;20031;-77
2023/05/30 21:07:36;;;;;;;14.48;2.50;;;21.90;48.80;;;;;;5104451;28;20141;-77
2023/05/30 21:10:02;;;;;;;8.15;2.60;;;21.90;48.70;;;;;;5086830;28;20389;-77
2023/05/30 21:12:28;;;;;;;5.53;2.05;;;21.80;48.40;;;;;;5086052;28;20032;-76
2023/05/30 21:14:54;;;;;;;7.15;2.40;;;21.80;48.40;;;;;;5087293;28;20031;-77
2023/05/30 21:17:20;;;;;;;9.48;2.10;;;21.80;48.40;;;;;;5088459;28;20025;-77
2023/05/30 21:19:45;;;;;;;4.00;2.00;;;21.80;48.50;;;;;;5082070;28;20470;-77
2023/05/30 21:22:11;;;;;;;4.90;2.30;;;21.80;48.50;;;;;;5083319;28;20036;-76
2023/05/30 21:24:37;;;;;;;4.80;2.28;;;21.80;48.40;;;;;;5067534;28;20032;-77
2023/05/30 21:27:03;;;;;;;11.85;3.15;;;21.80;48.60;;;;;;5067633;28;20052;-77
2023/05/30 21:29:29;;;;;;;7.45;2.05;;;21.80;48.60;;;;;;5067938;28;20116;-77
2023/05/30 21:31:55;;;;;;;10.10;2.47;;;21.80;48.60;;;;;;5072993;28;20021;-78
2023/05/30 21:34:21;;;;;;;10.77;2.63;;;21.80;48.90;;;;;;5083686;28;20039;-68
2023/05/30 21:36:47;;;;;;;13.05;2.92;;;21.80;48.80;;;;;;5085675;28;20032;-68
2023/05/30 21:39:12;;;;;;;8.35;2.58;;;21.80;48.40;;;;;;5069132;28;20040;-68
2023/05/30 21:41:38;;;;;;;13.50;3.00;;;21.80;48.40;;;;;;5087315;28;20028;-69
2023/05/30 21:44:05;;;;;;;10.27;2.60;;;21.70;47.10;;;;;;5086813;28;20081;-66
2023/05/30 21:46:31;;;;;;;11.07;2.53;;;21.70;46.40;;;;;;5078438;28;20540;-86
2023/05/30 21:48:57;;;;;;;10.80;2.60;;;21.60;45.80;;;;;;5049361;28;20453;-86
2023/05/30 21:51:23;;;;;;;15.77;2.67;;;21.60;46.10;;;;;;5065658;28;20032;-83
2023/05/30 21:53:49;;;;;;;6.43;2.60;;;21.60;46.30;;;;;;5065399;28;20512;-80
2023/05/30 21:56:16;;;;;;;14.63;2.78;;;21.60;46.00;;;;;;5068225;28;20082;-76
2023/05/30 21:58:42;;;;;;;8.82;2.50;;;21.60;46.40;;;;;;5067572;28;20013;-84
2023/05/30 22:01:08;;;;;;;14.30;2.80;;;21.60;47.40;;;;;;5069500;28;20036;-76
2023/05/30 22:03:34;;;;;;;13.23;2.72;;;21.60;46.90;;;;;;5073526;28;20028;-80
2023/05/30 22:05:59;;;;;;;16.48;3.58;;;21.60;46.70;;;;;;5056293;28;20124;-80
2023/05/30 22:08:25;;;;;;;10.73;3.28;;;21.70;47.60;;;;;;5069986;28;20025;-80
2023/05/30 22:10:51;;;;;;;17.17;3.70;;;21.70;46.80;;;;;;5076931;28;20024;-80
2023/05/30 22:13:17;;;;;;;17.52;3.55;;;21.60;47.80;;;;;;5082174;28;20098;-80
2023/05/30 22:15:43;;;;;;;15.93;4.30;;;21.80;49.30;;;;;;5039596;28;20490;-80
2023/05/30 22:18:09;;;;;;;21.27;3.30;;;21.80;48.90;;;;;;5069311;28;20025;-80
2023/05/30 22:20:34;;;;;;;16.45;3.00;;;21.70;47.90;;;;;;5063118;28;20032;-81
2023/05/30 22:23:00;;;;;;;7.97;3.30;;;21.80;47.00;;;;;;5072506;28;20063;-81
2023/05/30 22:25:27;;;;;;;10.38;2.65;;;21.70;46.70;;;;;;5086015;28;20282;-81
2023/05/30 22:27:53;;;;;;;8.07;2.67;;;21.80;46.00;;;;;;5073973;28;20541;-79
2023/05/30 22:30:19;;;;;;;9.00;2.90;;;21.70;45.80;;;;;;5072412;28;20097;-81
2023/05/30 22:32:45;;;;;;;8.68;2.35;;;21.70;46.10;;;;;;5078108;28;20127;-76
2023/05/30 22:35:11;;;;;;;6.03;2.47;;;21.60;45.00;;;;;;5090894;28;20039;-77
2023/05/30 22:37:36;;;;;;;11.25;2.45;;;21.60;45.80;;;;;;5058022;28;20031;-75
2023/05/30 22:40:02;;;;;;;6.72;2.72;;;21.60;45.80;;;;;;5072030;28;20023;-75
